createdAt,value
2019-03-26T00:01:43.854Z,102157.39
2019-03-26T00:04:13.355Z,102153.53
2019-03-26T00:06:42.861Z,102147.97
2019-03-26T00:09:12.061Z,102142.59
2019-03-26T00:11:42.286Z,102142.81
2019-03-26T00:14:11.909Z,102135.36
2019-03-26T00:16:41.498Z,102137.66
2019-03-26T00:19:11.001Z,102145.87
2019-03-26T00:21:40.508Z,102145.39
2019-03-26T00:24:10.043Z,102134.28
2019-03-26T00:26:39.230Z,102136.11
2019-03-26T00:29:08.399Z,102136.19
2019-03-26T00:31:37.924Z,102144.86
2019-03-26T00:34:18.767Z,102137.44
2019-03-26T00:36:38.482Z,102130.89
2019-03-26T00:39:07.987Z,102136.66
2019-03-26T00:41:37.451Z,102137.86
2019-03-26T00:44:07.038Z,102129.80
2019-03-26T00:46:36.493Z,102132.44
2019-03-26T00:49:05.638Z,102132.28
2019-03-26T00:51:34.845Z,102131.53
2019-03-26T00:54:04.295Z,102127.94
2019-03-26T00:56:33.473Z,102131.06
2019-03-26T00:59:02.671Z,102134.80
2019-03-26T01:01:32.191Z,102143.48
2019-03-26T01:04:02.010Z,102135.81
2019-03-26T01:06:31.290Z,102143.95
2019-03-26T01:09:01.121Z,102136.83
2019-03-26T01:11:30.621Z,102141.91
2019-03-26T01:14:00.131Z,102137.62
2019-03-26T01:16:29.739Z,102138.12
2019-03-26T01:18:59.455Z,102136.97
2019-03-26T01:21:28.651Z,102150.39
2019-03-26T01:23:57.832Z,102144.53
2019-03-26T01:26:27.033Z,102136.88
2019-03-26T01:28:56.971Z,102154.30
2019-03-26T01:31:26.468Z,102148.51
2019-03-26T01:33:56.280Z,102143.83
2019-03-26T01:36:25.780Z,102141.73
2019-03-26T01:38:55.296Z,102143.56
2019-03-26T01:41:25.408Z,102130.53
2019-03-26T01:43:54.912Z,102128.16
2019-03-26T01:46:25.138Z,102122.20
2019-03-26T01:48:54.950Z,102120.19
2019-03-26T01:51:24.458Z,102129.98
2019-03-26T01:53:54.205Z,102116.19
2019-03-26T01:56:23.979Z,102111.64
2019-03-26T01:58:54.769Z,102120.66
2019-03-26T02:01:23.942Z,102110.55
2019-03-26T02:03:53.420Z,102113.17
2019-03-26T02:06:23.196Z,102101.23
2019-03-26T02:08:52.735Z,102102.86
2019-03-26T02:11:22.318Z,102110.94
2019-03-26T02:13:51.860Z,102115.48
2019-03-26T02:16:21.355Z,102100.02
2019-03-26T02:18:50.856Z,102100.02
2019-03-26T02:21:20.377Z,102110.66
2019-03-26T02:23:50.181Z,102101.06
2019-03-26T02:26:19.451Z,102106.62
2019-03-26T02:28:49.197Z,102112.19
2019-03-26T02:31:18.462Z,102109.27
2019-03-26T02:33:47.684Z,102105.53
2019-03-26T02:36:17.200Z,102108.32
2019-03-26T02:38:46.719Z,102111.23
2019-03-26T02:41:16.216Z,102103.02
2019-03-26T02:43:46.028Z,102105.13
2019-03-26T02:46:15.538Z,102104.37
2019-03-26T02:48:45.595Z,102104.37
2019-03-26T02:51:15.050Z,102100.42
2019-03-26T02:53:44.566Z,102095.27
2019-03-26T02:56:13.747Z,102088.17
2019-03-26T02:58:42.905Z,102090.77
2019-03-26T03:01:12.664Z,102093.50
2019-03-26T03:03:41.846Z,102086.92
2019-03-26T03:06:11.323Z,102090.45
2019-03-26T03:08:40.997Z,102095.54
2019-03-26T03:11:10.501Z,102088.34
2019-03-26T03:13:40.117Z,102084.34
2019-03-26T03:16:09.913Z,102090.04
2019-03-26T03:18:39.409Z,102080.69
2019-03-26T03:21:08.594Z,102076.82
2019-03-26T03:23:37.856Z,102076.59
2019-03-26T03:26:07.488Z,102079.33
2019-03-26T03:28:36.680Z,102081.73
2019-03-26T03:31:06.259Z,102087.53
2019-03-26T03:33:35.711Z,102071.26
2019-03-26T03:36:04.949Z,102062.48
2019-03-26T03:38:34.205Z,102067.87
2019-03-26T03:41:03.921Z,102074.98
2019-03-26T03:43:33.143Z,102085.03
2019-03-26T03:46:02.749Z,102068.06
2019-03-26T03:48:33.833Z,102073.70
2019-03-26T03:51:04.735Z,102072.61
2019-03-26T03:53:33.904Z,102059.80
2019-03-26T03:56:04.155Z,102061.56
2019-03-26T03:58:34.962Z,102070.11
2019-03-26T04:01:04.477Z,102066.30
2019-03-26T04:03:33.663Z,102060.73
2019-03-26T04:06:09.345Z,102060.81
2019-03-26T04:08:34.335Z,102070.84
2019-03-26T04:11:03.612Z,102074.19
2019-03-26T04:13:32.821Z,102066.25
2019-03-26T04:16:02.024Z,102062.19
2019-03-26T04:18:31.231Z,102068.22
2019-03-26T04:21:00.379Z,102067.20
2019-03-26T04:23:29.783Z,102067.00
2019-03-26T04:25:58.992Z,102069.33
2019-03-26T04:28:28.187Z,102055.05
2019-03-26T04:30:58.343Z,102062.67
2019-03-26T04:33:27.857Z,102056.89
2019-03-26T04:35:57.073Z,102064.64
2019-03-26T04:38:26.288Z,102051.55
2019-03-26T04:40:56.067Z,102058.95
2019-03-26T04:43:25.583Z,102061.94
2019-03-26T04:45:56.158Z,102053.25
2019-03-26T04:48:25.320Z,102055.73
2019-03-26T04:50:54.529Z,102062.47
2019-03-26T04:53:24.315Z,102060.04
2019-03-26T04:55:53.497Z,102061.31
2019-03-26T04:58:23.020Z,102064.76
2019-03-26T05:00:52.921Z,102067.81
2019-03-26T05:03:22.467Z,102074.62
2019-03-26T05:05:51.931Z,102063.13
2019-03-26T05:08:21.346Z,102062.72
2019-03-26T05:10:50.852Z,102058.45
2019-03-26T05:13:20.057Z,102065.55
2019-03-26T05:15:49.534Z,102065.55
2019-03-26T05:18:19.314Z,102060.55
2019-03-26T05:20:48.771Z,102060.24
2019-03-26T05:23:18.288Z,102056.92
2019-03-26T05:25:47.802Z,102062.59
2019-03-26T05:28:16.969Z,102049.80
2019-03-26T05:30:46.455Z,102047.42
2019-03-26T05:33:16.013Z,102045.55
2019-03-26T05:35:45.510Z,102041.13
2019-03-26T05:38:14.808Z,102043.41
2019-03-26T05:40:44.316Z,102034.75
2019-03-26T05:43:13.819Z,102029.91
2019-03-26T05:45:43.419Z,102029.91
2019-03-26T05:48:12.624Z,102035.25
2019-03-26T05:50:42.736Z,102037.30
2019-03-26T05:53:12.250Z,102032.94
2019-03-26T05:55:41.503Z,102033.06
2019-03-26T05:58:11.139Z,102033.06
2019-03-26T06:00:40.667Z,102034.09
2019-03-26T06:03:10.230Z,102035.34
2019-03-26T06:05:39.409Z,102044.07
2019-03-26T06:08:08.590Z,102045.55
2019-03-26T06:10:38.071Z,102042.08
2019-03-26T06:13:07.247Z,102042.08
2019-03-26T06:15:36.447Z,102037.05
2019-03-26T06:18:05.705Z,102031.77
2019-03-26T06:20:35.165Z,102031.52
2019-03-26T06:23:05.702Z,102042.15
2019-03-26T06:25:34.912Z,102042.15
2019-03-26T06:28:04.406Z,102039.09
2019-03-26T06:30:34.217Z,102039.09
2019-03-26T06:33:03.721Z,102047.27
2019-03-26T06:35:32.887Z,102047.27
2019-03-26T06:38:02.079Z,102048.41
2019-03-26T06:40:31.844Z,102048.41
2019-03-26T06:43:01.643Z,102053.09
2019-03-26T06:45:31.383Z,102040.66
2019-03-26T06:48:00.658Z,102028.69
2019-03-26T06:50:30.162Z,102028.69
2019-03-26T06:52:59.318Z,102028.58
2019-03-26T06:55:28.760Z,102027.45
2019-03-26T06:57:58.379Z,102027.45
2019-03-26T07:00:31.785Z,102029.41
2019-03-26T07:03:04.042Z,102043.27
2019-03-26T07:05:33.205Z,102026.48
2019-03-26T07:08:03.043Z,102024.63
2019-03-26T07:10:32.665Z,102034.49
2019-03-26T07:13:02.474Z,102039.95
2019-03-26T07:15:31.697Z,102039.95
2019-03-26T07:18:00.953Z,102039.87
2019-03-26T07:20:30.155Z,102039.87
2019-03-26T07:22:59.511Z,102010.81
2019-03-26T07:25:29.070Z,102026.19
2019-03-26T07:27:58.715Z,102012.30
2019-03-26T07:30:53.481Z,102021.59
2019-03-26T07:33:23.036Z,102021.59
2019-03-26T07:35:52.594Z,102010.91
2019-03-26T07:38:22.408Z,102006.56
2019-03-26T07:40:51.933Z,102017.37
2019-03-26T07:43:21.232Z,102017.37
2019-03-26T07:45:51.133Z,102013.17
2019-03-26T07:48:20.945Z,102013.17
2019-03-26T07:50:50.568Z,102024.95
2019-03-26T07:53:19.735Z,102024.95
2019-03-26T07:55:49.464Z,102019.44
2019-03-26T07:58:18.720Z,102013.11
2019-03-26T08:00:48.175Z,102007.31
2019-03-26T08:03:17.577Z,102025.05
2019-03-26T08:05:46.726Z,102032.25
2019-03-26T08:08:16.494Z,102013.59
2019-03-26T08:10:45.991Z,102017.20
2019-03-26T08:13:15.201Z,102018.56
2019-03-26T08:15:44.394Z,102018.56
2019-03-26T08:18:13.672Z,102047.16
2019-03-26T08:20:43.400Z,102047.16
2019-03-26T08:23:12.882Z,102004.66
2019-03-26T08:25:42.041Z,102013.12
2019-03-26T08:28:11.298Z,102022.80
2019-03-26T08:30:40.911Z,102022.80
2019-03-26T08:33:10.423Z,102009.83
2019-03-26T08:35:39.966Z,102011.06
2019-03-26T08:38:12.734Z,102006.31
2019-03-26T08:40:40.054Z,102012.00
2019-03-26T08:43:09.578Z,102012.14
2019-03-26T08:45:38.810Z,102022.75
2019-03-26T08:48:08.261Z,102016.84
2019-03-26T08:50:37.773Z,102010.33
2019-03-26T08:53:07.015Z,102017.25
2019-03-26T08:55:36.475Z,102029.16
2019-03-26T08:58:05.826Z,102026.92
2019-03-26T09:00:35.404Z,102026.05
2019-03-26T09:03:04.580Z,102018.71
2019-03-26T09:05:34.084Z,102018.71
2019-03-26T09:08:04.002Z,102024.77
2019-03-26T09:10:33.505Z,102011.95
2019-03-26T09:13:03.119Z,102019.81
2019-03-26T09:15:32.724Z,102026.03
2019-03-26T09:18:02.452Z,102022.98
2019-03-26T09:20:32.247Z,102016.89
2019-03-26T09:23:01.461Z,102030.59
2019-03-26T09:25:30.902Z,102030.59
2019-03-26T09:28:00.097Z,102017.24
2019-03-26T09:30:30.268Z,102029.09
2019-03-26T09:32:59.481Z,102029.09
2019-03-26T09:35:28.976Z,102038.83
2019-03-26T09:37:58.209Z,102048.95
2019-03-26T09:40:27.704Z,102028.94
2019-03-26T09:42:57.489Z,102028.94
2019-03-26T09:45:26.740Z,102040.37
2019-03-26T09:47:56.293Z,102046.20
2019-03-26T09:50:34.160Z,102046.20
2019-03-26T09:53:03.571Z,102062.44
2019-03-26T09:55:33.109Z,102042.69
2019-03-26T09:58:03.332Z,102042.69
2019-03-26T10:00:32.953Z,102048.81
2019-03-26T10:03:02.607Z,102048.62
2019-03-26T10:05:32.087Z,102050.08
2019-03-26T10:08:01.552Z,102044.95
2019-03-26T10:10:30.740Z,102044.95
2019-03-26T10:12:59.940Z,102057.18
2019-03-26T10:15:30.085Z,102067.43
2019-03-26T10:17:59.280Z,102038.45
2019-03-26T10:20:28.800Z,102049.52
2019-03-26T10:22:58.380Z,102043.02
2019-03-26T10:25:27.615Z,102043.02
2019-03-26T10:27:57.117Z,102042.75
2019-03-26T10:30:35.214Z,102020.08
2019-03-26T10:33:04.692Z,102025.35
2019-03-26T10:35:33.964Z,102032.70
2019-03-26T10:38:03.184Z,102031.00
2019-03-26T10:40:33.600Z,102044.42
2019-03-26T10:43:03.278Z,102036.13
2019-03-26T10:45:32.853Z,102037.84
2019-03-26T10:48:02.773Z,102025.31
2019-03-26T10:50:32.370Z,102043.08
2019-03-26T10:53:01.568Z,102049.69
2019-03-26T10:55:30.767Z,102036.55
2019-03-26T10:58:00.902Z,102053.86
2019-03-26T11:00:30.418Z,102044.36
2019-03-26T11:02:59.884Z,102041.27
2019-03-26T11:05:29.303Z,102030.73
2019-03-26T11:07:58.999Z,102043.63
2019-03-26T11:10:28.242Z,102078.23
2019-03-26T11:12:58.125Z,102045.25
2019-03-26T11:15:27.367Z,102053.07
2019-03-26T11:17:56.841Z,102044.88
2019-03-26T11:20:26.337Z,102049.64
2019-03-26T11:22:55.740Z,102048.77
2019-03-26T11:25:25.088Z,102040.87
2019-03-26T11:27:54.623Z,102064.41
2019-03-26T11:30:24.162Z,102060.13
2019-03-26T11:32:53.682Z,102057.44
2019-03-26T11:35:23.172Z,102056.30
2019-03-26T11:37:52.715Z,102076.42
2019-03-26T11:40:22.609Z,102076.87
2019-03-26T11:42:51.761Z,102072.84
2019-03-26T11:45:21.009Z,102060.94
2019-03-26T11:47:50.826Z,102070.13
2019-03-26T11:50:20.105Z,102068.30
2019-03-26T11:52:49.385Z,102057.30
2019-03-26T11:55:21.690Z,102064.99
2019-03-26T11:57:50.142Z,102060.89
2019-03-26T12:00:24.076Z,102050.25
2019-03-26T12:02:53.877Z,102047.58
2019-03-26T12:05:23.795Z,102042.28
2019-03-26T12:07:52.988Z,102036.94
2019-03-26T12:10:22.605Z,102049.59
2019-03-26T12:12:52.408Z,102049.59
2019-03-26T12:15:22.024Z,102064.66
2019-03-26T12:17:51.191Z,102058.81
2019-03-26T12:20:20.726Z,102061.95
2019-03-26T12:22:50.235Z,102061.95
2019-03-26T12:25:19.374Z,102072.92
2019-03-26T12:27:48.830Z,102063.64
2019-03-26T12:30:31.544Z,102020.11
2019-03-26T12:33:00.760Z,102072.88
2019-03-26T12:35:30.515Z,102072.63
2019-03-26T12:38:00.166Z,102078.19
2019-03-26T12:40:29.773Z,102077.14
2019-03-26T12:42:59.892Z,102077.14
2019-03-26T12:45:29.176Z,102082.33
2019-03-26T12:47:58.452Z,102062.86
2019-03-26T12:50:27.897Z,102074.30
2019-03-26T12:52:57.119Z,102081.43
2019-03-26T12:55:26.294Z,102089.12
2019-03-26T12:57:55.806Z,102089.12
2019-03-26T13:00:31.476Z,102071.33
2019-03-26T13:03:00.955Z,102075.36
2019-03-26T13:05:30.232Z,102078.89
2019-03-26T13:08:00.073Z,102082.67
2019-03-26T13:10:29.564Z,102081.63
2019-03-26T13:12:58.744Z,102093.39
2019-03-26T13:15:28.279Z,102085.83
2019-03-26T13:17:57.436Z,102096.25
2019-03-26T13:20:27.189Z,102104.11
2019-03-26T13:22:56.478Z,102107.85
2019-03-26T13:25:25.827Z,102121.66
2019-03-26T13:27:55.141Z,102106.09
2019-03-26T13:30:24.340Z,102120.95
2019-03-26T13:32:54.203Z,102113.89
2019-03-26T13:35:23.913Z,102117.60
2019-03-26T13:37:53.087Z,102126.68
2019-03-26T13:40:27.528Z,102122.84
2019-03-26T13:42:53.455Z,102131.91
2019-03-26T13:45:23.207Z,102131.91
2019-03-26T13:47:52.676Z,102139.80
2019-03-26T13:50:22.279Z,102139.80
2019-03-26T13:52:51.426Z,102135.34
2019-03-26T13:55:20.880Z,102135.34
2019-03-26T13:57:50.387Z,102154.80
2019-03-26T14:00:33.273Z,102157.22
2019-03-26T14:03:03.404Z,102144.61
2019-03-26T14:05:32.935Z,102156.74
2019-03-26T14:08:02.280Z,102153.02
2019-03-26T14:10:40.945Z,102158.99
2019-03-26T14:13:02.726Z,102170.30
2019-03-26T14:15:32.302Z,102170.30
2019-03-26T14:18:01.488Z,102164.55
2019-03-26T14:20:30.657Z,102184.73
2019-03-26T14:22:59.832Z,102176.41
2019-03-26T14:25:29.287Z,102176.76
2019-03-26T14:27:58.685Z,102188.23
2019-03-26T14:30:39.673Z,102181.86
2019-03-26T14:33:09.582Z,102189.20
2019-03-26T14:35:38.847Z,102198.36
2019-03-26T14:38:08.490Z,102208.75
2019-03-26T14:40:37.677Z,102182.34
2019-03-26T14:43:07.127Z,102187.96
2019-03-26T14:45:36.722Z,102187.02
2019-03-26T14:48:06.515Z,102188.46
2019-03-26T14:50:36.025Z,102197.33
2019-03-26T14:53:05.282Z,102197.33
2019-03-26T14:55:34.947Z,102186.89
2019-03-26T14:58:04.431Z,102201.45
2019-03-26T15:00:34.706Z,102191.33
2019-03-26T15:03:04.252Z,102197.98
2019-03-26T15:05:33.873Z,102192.29
2019-03-26T15:08:03.054Z,102197.77
2019-03-26T15:10:32.583Z,102209.89
2019-03-26T15:13:01.791Z,102211.39
2019-03-26T15:15:31.382Z,102205.32
2019-03-26T15:18:00.645Z,102215.25
2019-03-26T15:20:29.898Z,102214.53
2019-03-26T15:22:59.102Z,102220.31
2019-03-26T15:25:28.281Z,102207.77
2019-03-26T15:27:57.456Z,102221.86
2019-03-26T15:30:26.631Z,102206.83
2019-03-26T15:32:56.391Z,102221.28
2019-03-26T15:35:25.584Z,102220.48
2019-03-26T15:37:54.857Z,102222.23
2019-03-26T15:40:24.598Z,102211.89
2019-03-26T15:42:54.102Z,102217.28
2019-03-26T15:45:23.331Z,102217.28
2019-03-26T15:47:52.816Z,102227.39
2019-03-26T15:50:39.316Z,102232.14
2019-03-26T15:53:08.919Z,102234.66
2019-03-26T15:55:38.530Z,102228.46
2019-03-26T15:58:07.816Z,102232.58
2019-03-26T16:00:37.333Z,102236.46
2019-03-26T16:03:06.944Z,102234.32
2019-03-26T16:05:36.759Z,102230.25
2019-03-26T16:08:06.260Z,102230.25
2019-03-26T16:10:35.768Z,102238.72
2019-03-26T16:13:05.272Z,102238.72
2019-03-26T16:15:44.332Z,102237.80
2019-03-26T16:18:06.335Z,102244.84
2019-03-26T16:20:35.883Z,102248.73
2019-03-26T16:23:05.108Z,102243.09
2019-03-26T16:25:34.642Z,102243.09
2019-03-26T16:28:04.253Z,102253.41
2019-03-26T16:30:34.587Z,102249.34
2019-03-26T16:33:04.710Z,102247.75
2019-03-26T16:35:34.208Z,102247.75
2019-03-26T16:38:03.734Z,102256.55
2019-03-26T16:40:33.520Z,102262.72
2019-03-26T16:43:02.729Z,102263.73
2019-03-26T16:45:33.094Z,102265.16
2019-03-26T16:48:02.669Z,102265.16
2019-03-26T16:50:31.865Z,102258.53
2019-03-26T16:53:01.145Z,102252.72
2019-03-26T16:55:30.675Z,102258.81
2019-03-26T16:57:59.851Z,102256.09
2019-03-26T17:00:36.133Z,102261.79
2019-03-26T17:03:05.579Z,102266.25
2019-03-26T17:05:35.143Z,102264.54
2019-03-26T17:08:04.364Z,102271.97
2019-03-26T17:10:33.668Z,102274.76
2019-03-26T17:13:03.144Z,102271.55
2019-03-26T17:15:33.575Z,102271.56
2019-03-26T17:18:02.735Z,102270.73
2019-03-26T17:20:31.948Z,102275.09
2019-03-26T17:23:01.800Z,102283.47
2019-03-26T17:25:31.396Z,102281.09
2019-03-26T17:28:00.867Z,102277.98
2019-03-26T17:30:30.073Z,102286.05
2019-03-26T17:32:59.495Z,102291.28
2019-03-26T17:35:28.896Z,102291.28
2019-03-26T17:38:00.302Z,102293.66
2019-03-26T17:40:29.467Z,102295.16
2019-03-26T17:42:59.020Z,102299.98
2019-03-26T17:45:28.566Z,102305.45
2019-03-26T17:47:57.845Z,102303.31
2019-03-26T17:50:27.267Z,102312.26
2019-03-26T17:52:56.775Z,102310.84
2019-03-26T17:55:25.983Z,102314.14
2019-03-26T17:57:57.011Z,102312.44
2019-03-26T18:00:44.644Z,102316.86
2019-03-26T18:03:25.552Z,102322.51
2019-03-26T18:05:45.267Z,102322.51
2019-03-26T18:08:15.209Z,102320.64
2019-03-26T18:10:44.709Z,102326.34
2019-03-26T18:13:14.367Z,102336.49
2019-03-26T18:15:44.350Z,102345.02
2019-03-26T18:18:14.554Z,102336.33
2019-03-26T18:20:43.758Z,102352.13
2019-03-26T18:23:13.194Z,102345.37
2019-03-26T18:25:43.284Z,102352.19
2019-03-26T18:28:12.787Z,102355.12
2019-03-26T18:30:42.306Z,102355.53
2019-03-26T18:33:11.931Z,102365.05
2019-03-26T18:35:41.403Z,102368.11
2019-03-26T18:38:14.742Z,102368.58
2019-03-26T18:40:43.279Z,102368.10
2019-03-26T18:43:12.659Z,102360.02
2019-03-26T18:45:42.192Z,102362.92
2019-03-26T18:48:11.408Z,102359.38
2019-03-26T18:50:41.913Z,102371.87
2019-03-26T18:53:11.984Z,102375.39
2019-03-26T18:55:41.441Z,102375.39
2019-03-26T18:58:10.956Z,102376.61
2019-03-26T19:00:40.731Z,102378.13
2019-03-26T19:03:09.953Z,102378.13
2019-03-26T19:05:39.476Z,102373.00
2019-03-26T19:08:09.685Z,102373.00
2019-03-26T19:10:38.998Z,102383.64
2019-03-26T19:13:18.430Z,102383.64
2019-03-26T19:15:39.451Z,102386.70
2019-03-26T19:18:09.154Z,102384.58
2019-03-26T19:20:38.698Z,102383.78
2019-03-26T19:23:07.972Z,102384.11
2019-03-26T19:25:37.283Z,102390.55
2019-03-26T19:28:06.885Z,102390.56
2019-03-26T19:30:36.287Z,102390.56
2019-03-26T19:33:05.907Z,102390.56
2019-03-26T19:35:35.228Z,102390.56
2019-03-26T19:38:04.517Z,102403.02
2019-03-26T19:40:33.702Z,102397.34
2019-03-26T19:43:10.673Z,102414.76
2019-03-26T19:45:35.063Z,102414.76
2019-03-26T19:48:04.651Z,102409.78
2019-03-26T19:50:34.157Z,102409.70
2019-03-26T19:53:03.378Z,102408.72
2019-03-26T19:55:32.969Z,102408.72
2019-03-26T19:58:02.587Z,102412.98
2019-03-26T20:00:32.177Z,102422.64
2019-03-26T20:03:02.108Z,102407.66
2019-03-26T20:05:31.320Z,102414.66
2019-03-26T20:08:00.991Z,102415.02
2019-03-26T20:10:30.321Z,102412.28
2019-03-26T20:12:59.606Z,102414.19
2019-03-26T20:15:28.835Z,102406.12
2019-03-26T20:17:58.315Z,102406.12
2019-03-26T20:20:27.625Z,102411.13
2019-03-26T20:22:57.868Z,102428.05
2019-03-26T20:25:27.344Z,102423.36
2019-03-26T20:27:56.883Z,102428.37
2019-03-26T20:30:26.867Z,102423.16
2019-03-26T20:32:56.152Z,102423.16
2019-03-26T20:35:25.433Z,102425.86
2019-03-26T20:37:54.627Z,102423.36
2019-03-26T20:40:24.174Z,102423.36
2019-03-26T20:42:53.678Z,102421.38
2019-03-26T20:45:22.983Z,102431.52
2019-03-26T20:47:52.796Z,102419.34
2019-03-26T20:50:22.396Z,102422.01
2019-03-26T20:52:52.095Z,102426.81
2019-03-26T20:55:32.978Z,102421.30
2019-03-26T20:58:02.703Z,102421.30
2019-03-26T21:00:42.250Z,102432.24
2019-03-26T21:03:11.635Z,102428.58
2019-03-26T21:05:41.099Z,102449.56
2019-03-26T21:08:10.763Z,102447.59
2019-03-26T21:10:40.356Z,102447.59
2019-03-26T21:13:09.963Z,102457.45
2019-03-26T21:15:42.371Z,102462.39
2019-03-26T21:18:10.372Z,102467.63
2019-03-26T21:20:39.676Z,102464.98
2019-03-26T21:23:09.529Z,102463.22
2019-03-26T21:25:38.822Z,102474.36
2019-03-26T21:28:08.325Z,102472.50
2019-03-26T21:30:37.830Z,102472.50
2019-03-26T21:33:07.118Z,102473.47
2019-03-26T21:35:37.153Z,102470.89
2019-03-26T21:38:06.860Z,102470.89
2019-03-26T21:40:36.381Z,102481.83
2019-03-26T21:43:05.554Z,102493.29
2019-03-26T21:45:36.612Z,102490.66
2019-03-26T21:48:07.474Z,102488.40
2019-03-26T21:50:37.363Z,102495.61
2019-03-26T21:53:06.877Z,102497.79
2019-03-26T21:55:36.481Z,102482.75
2019-03-26T21:58:05.785Z,102494.32
2019-03-26T22:00:35.509Z,102491.00
2019-03-26T22:03:05.579Z,102490.38
2019-03-26T22:05:35.439Z,102484.12
2019-03-26T22:08:05.143Z,102492.08
2019-03-26T22:10:34.642Z,102489.90
2019-03-26T22:13:04.247Z,102491.59
2019-03-26T22:15:34.093Z,102491.59
2019-03-26T22:18:03.560Z,102492.09
2019-03-26T22:20:33.288Z,102493.31
2019-03-26T22:23:02.629Z,102499.44
2019-03-26T22:25:32.697Z,102510.50
2019-03-26T22:28:02.317Z,102510.50
2019-03-26T22:30:31.921Z,102506.27
2019-03-26T22:33:01.125Z,102512.95
2019-03-26T22:35:30.621Z,102512.95
2019-03-26T22:38:00.118Z,102517.14
2019-03-26T22:40:29.627Z,102517.14
2019-03-26T22:42:59.224Z,102509.40
2019-03-26T22:45:28.438Z,102520.09
2019-03-26T22:47:58.041Z,102520.09
2019-03-26T22:50:27.649Z,102518.10
2019-03-26T22:52:56.849Z,102525.25
2019-03-26T22:55:26.349Z,102525.25
2019-03-26T22:57:55.861Z,102532.17
2019-03-26T23:00:25.700Z,102541.55
2019-03-26T23:02:55.280Z,102544.20
2019-03-26T23:05:24.492Z,102535.07
2019-03-26T23:07:53.991Z,102538.77
2019-03-26T23:10:23.249Z,102545.17
2019-03-26T23:12:52.430Z,102541.77
2019-03-26T23:15:23.605Z,102544.34
2019-03-26T23:17:53.137Z,102548.34
2019-03-26T23:20:23.047Z,102545.34
2019-03-26T23:22:52.384Z,102551.22
2019-03-26T23:25:21.582Z,102551.22
2019-03-26T23:27:51.159Z,102554.39
2019-03-26T23:30:21.225Z,102550.92
2019-03-26T23:32:50.419Z,102550.74
2019-03-26T23:35:20.287Z,102550.74
2019-03-26T23:37:49.529Z,102558.13
2019-03-26T23:40:19.818Z,102558.13
2019-03-26T23:42:49.728Z,102549.00
2019-03-26T23:45:19.336Z,102546.52
2019-03-26T23:47:48.947Z,102546.52
2019-03-26T23:50:18.448Z,102543.19
2019-03-26T23:52:47.952Z,102543.19
2019-03-26T23:55:17.969Z,102552.44
2019-03-26T23:57:47.309Z,102552.44
